Time;durP1;ratioP1;P1;durP2;ratioP2;P2;SDS_P1;SDS_P2;PMS_P1;PMS_P2;Temp;Humidity;BMP_temperature;BMP_pressure;BME280_temperature;BME280_humidity;BME280_pressure;Samples;Min_cycle;Max_cycle;Signal;HPM_P1;HPM_P2
2021/08/23 00:00:55;;;;;;;1.70;1.57;;;16.50;99.90;;;;;;6274374;22;20229;-59
2021/08/23 00:03:21;;;;;;;1.90;1.70;;;16.50;99.90;;;;;;6274546;22;20147;-60
2021/08/23 00:05:46;;;;;;;2.73;1.67;;;16.30;99.90;;;;;;6274199;22;20173;-58
2021/08/23 00:08:12;;;;;;;2.57;1.80;;;16.30;99.90;;;;;;6273896;22;20521;-60
2021/08/23 00:10:37;;;;;;;1.60;1.50;;;16.20;99.90;;;;;;6274077;22;20177;-59
2021/08/23 00:13:03;;;;;;;2.17;1.47;;;16.10;99.90;;;;;;6274461;22;20481;-59
2021/08/23 00:15:28;;;;;;;8.07;2.00;;;16.10;99.90;;;;;;6274219;22;20186;-60
2021/08/23 00:17:54;;;;;;;1.80;1.57;;;16.50;99.90;;;;;;6274171;22;20184;-59
2021/08/23 00:20:25;;;;;;;1.90;1.70;;;16.20;99.90;;;;;;6274040;22;20149;-60
2021/08/23 00:22:51;;;;;;;2.63;1.60;;;16.30;99.90;;;;;;6274484;22;20188;-59
2021/08/23 00:25:20;;;;;;;1.57;1.40;;;16.40;99.90;;;;;;6274220;22;20633;-59
2021/08/23 00:27:45;;;;;;;4.60;1.77;;;16.40;99.90;;;;;;6274238;22;20169;-59
2021/08/23 00:30:13;;;;;;;2.43;2.00;;;16.40;99.90;;;;;;6273980;22;20221;-59
2021/08/23 00:32:39;;;;;;;2.07;1.53;;;16.60;99.90;;;;;;6273833;22;20476;-60
2021/08/23 00:35:06;;;;;;;1.70;1.40;;;16.70;99.90;;;;;;6274153;22;20257;-59
2021/08/23 00:37:31;;;;;;;1.77;1.50;;;16.80;99.90;;;;;;6274044;22;20488;-59
2021/08/23 00:39:57;;;;;;;1.57;1.47;;;16.80;99.90;;;;;;6273923;22;20209;-59
2021/08/23 00:42:22;;;;;;;2.20;1.50;;;16.80;99.90;;;;;;6274039;22;20146;-60
2021/08/23 00:44:48;;;;;;;3.47;1.53;;;16.60;99.90;;;;;;6273778;22;20142;-59
2021/08/23 00:47:14;;;;;;;2.83;1.80;;;16.40;99.90;;;;;;6274111;22;20146;-59
2021/08/23 00:49:39;;;;;;;2.03;1.50;;;16.30;99.90;;;;;;6273624;22;20157;-59
2021/08/23 00:52:06;;;;;;;4.20;1.50;;;16.10;99.90;;;;;;6274004;22;20588;-59
2021/08/23 00:54:33;;;;;;;3.40;1.90;;;16.00;99.90;;;;;;6273959;22;20150;-59
2021/08/23 00:56:59;;;;;;;2.80;1.77;;;15.80;99.90;;;;;;6274394;22;20174;-59
2021/08/23 00:59:30;;;;;;;3.80;1.90;;;15.80;99.90;;;;;;6273555;22;20261;-60
2021/08/23 01:02:17;;;;;;;3.73;1.83;;;15.80;99.90;;;;;;6274239;22;20147;-59
2021/08/23 01:05:15;;;;;;;3.40;1.70;;;15.80;99.90;;;;;;6274486;22;20523;-60
2021/08/23 01:07:49;;;;;;;4.47;1.70;;;15.90;99.90;;;;;;6274276;22;20188;-59
2021/08/23 01:10:19;;;;;;;2.60;1.93;;;16.00;99.90;;;;;;6273608;22;20642;-59
2021/08/23 01:12:45;;;;;;;3.10;1.70;;;16.10;99.90;;;;;;6274203;22;20165;-57
2021/08/23 01:15:10;;;;;;;3.70;2.00;;;16.10;99.90;;;;;;6273838;22;20192;-59
2021/08/23 01:17:36;;;;;;;2.83;1.80;;;16.10;99.90;;;;;;6274268;22;20218;-60
2021/08/23 01:20:05;;;;;;;1.93;1.73;;;16.10;99.90;;;;;;6273481;22;20180;-57
2021/08/23 01:22:42;;;;;;;2.37;2.17;;;16.10;99.90;;;;;;6273937;22;20149;-59
2021/08/23 01:25:08;;;;;;;3.20;1.90;;;16.10;99.90;;;;;;6273989;22;20490;-58
2021/08/23 01:27:37;;;;;;;6.27;2.20;;;16.30;99.90;;;;;;6274154;22;20225;-59
2021/08/23 01:30:11;;;;;;;2.40;2.20;;;16.40;99.90;;;;;;6274077;22;20535;-58
2021/08/23 01:32:38;;;;;;;4.17;2.43;;;16.40;99.90;;;;;;6274418;22;20164;-59
2021/08/23 01:35:07;;;;;;;3.77;3.40;;;16.40;99.90;;;;;;6273940;22;20260;-58
2021/08/23 01:37:34;;;;;;;5.30;3.37;;;16.10;99.90;;;;;;6273816;22;20493;-56
2021/08/23 01:39:59;;;;;;;3.53;3.20;;;16.00;99.90;;;;;;6273952;22;20174;-59
2021/08/23 01:42:25;;;;;;;5.23;3.07;;;15.90;99.90;;;;;;6273866;22;20150;-59
2021/08/23 01:44:51;;;;;;;3.37;3.07;;;15.90;99.90;;;;;;6274008;22;20612;-59
2021/08/23 01:47:16;;;;;;;3.57;2.73;;;15.90;99.90;;;;;;6273838;22;20154;-56
2021/08/23 01:49:42;;;;;;;3.30;2.57;;;15.80;99.90;;;;;;6273562;22;20154;-59
2021/08/23 01:52:09;;;;;;;3.30;2.73;;;15.90;99.90;;;;;;6273500;22;20150;-59
2021/08/23 01:54:34;;;;;;;3.73;2.60;;;15.80;99.90;;;;;;6273992;22;20154;-59
2021/08/23 01:57:00;;;;;;;3.50;2.97;;;15.60;99.90;;;;;;6273445;22;20177;-58
2021/08/23 01:59:26;;;;;;;3.90;2.80;;;15.70;99.90;;;;;;6273512;22;20174;-59
2021/08/23 02:01:51;;;;;;;6.27;3.10;;;15.70;99.90;;;;;;6273804;22;20809;-58
2021/08/23 02:04:17;;;;;;;5.00;2.93;;;15.70;99.90;;;;;;6273461;22;20149;-59
2021/08/23 02:06:42;;;;;;;3.27;2.97;;;15.70;99.90;;;;;;6273561;22;20181;-55
2021/08/23 02:09:08;;;;;;;3.13;2.83;;;15.70;99.90;;;;;;6273129;22;20186;-55
2021/08/23 02:11:34;;;;;;;3.93;3.20;;;15.60;99.90;;;;;;6273799;22;20198;-59
2021/08/23 02:13:59;;;;;;;3.17;2.83;;;15.60;99.90;;;;;;6273711;22;20161;-59
2021/08/23 02:16:25;;;;;;;3.77;3.43;;;15.60;99.90;;;;;;6273588;22;20192;-59
2021/08/23 02:18:51;;;;;;;4.33;3.03;;;15.50;99.90;;;;;;6273203;22;20169;-59
2021/08/23 02:21:19;;;;;;;4.30;3.20;;;15.60;99.90;;;;;;6273734;22;20157;-59
2021/08/23 02:23:46;;;;;;;4.93;3.37;;;15.60;99.90;;;;;;6273860;22;20146;-58
2021/08/23 02:26:11;;;;;;;4.13;3.33;;;15.80;99.90;;;;;;6273750;22;20204;-60
2021/08/23 02:28:37;;;;;;;4.07;3.23;;;15.70;99.90;;;;;;6273360;22;20150;-59
2021/08/23 02:31:03;;;;;;;4.57;3.33;;;15.60;99.90;;;;;;6273757;22;20155;-57
2021/08/23 02:33:28;;;;;;;5.10;3.33;;;15.60;99.90;;;;;;6275630;22;20158;-59
2021/08/23 02:35:54;;;;;;;4.47;3.00;;;15.60;99.90;;;;;;6275160;22;20178;-60
2021/08/23 02:38:19;;;;;;;4.17;3.40;;;15.60;99.90;;;;;;6275422;22;20178;-59
2021/08/23 02:40:45;;;;;;;3.53;3.23;;;15.40;99.90;;;;;;6248214;22;20146;-60
2021/08/23 02:43:11;;;;;;;5.17;3.13;;;15.30;99.90;;;;;;6275553;22;20146;-59
2021/08/23 02:45:36;;;;;;;5.27;3.50;;;15.20;99.90;;;;;;6275859;22;20675;-59
2021/08/23 02:48:02;;;;;;;4.83;3.57;;;15.20;99.90;;;;;;6276041;22;20150;-59
2021/08/23 02:50:27;;;;;;;6.03;3.80;;;15.20;99.90;;;;;;6275229;22;20601;-59
2021/08/23 02:52:53;;;;;;;4.60;3.43;;;15.30;99.90;;;;;;6275440;22;20142;-58
2021/08/23 02:55:18;;;;;;;3.97;3.40;;;15.40;99.90;;;;;;6275134;22;20447;-58
2021/08/23 02:57:44;;;;;;;4.07;3.30;;;15.50;99.90;;;;;;6275471;22;20228;-59
2021/08/23 03:00:10;;;;;;;4.43;3.50;;;15.60;99.90;;;;;;6247849;22;20178;-59
2021/08/23 03:02:36;;;;;;;5.17;3.70;;;15.70;99.90;;;;;;6275152;22;20195;-59
2021/08/23 03:05:02;;;;;;;4.03;3.60;;;15.60;99.90;;;;;;6275198;22;20165;-59
2021/08/23 03:07:27;;;;;;;3.47;3.17;;;15.70;99.90;;;;;;6275256;22;20153;-58
2021/08/23 03:09:53;;;;;;;5.53;3.23;;;15.80;99.90;;;;;;6274888;22;20150;-60
2021/08/23 03:12:19;;;;;;;4.47;3.40;;;15.80;99.90;;;;;;6275127;22;20146;-59
2021/08/23 03:14:44;;;;;;;4.43;3.47;;;15.90;99.90;;;;;;6275111;22;20639;-54
2021/08/23 03:17:10;;;;;;;3.57;3.27;;;16.00;99.90;;;;;;6274953;22;20189;-59
2021/08/23 03:19:35;;;;;;;3.90;3.50;;;16.00;99.90;;;;;;6274736;22;20498;-57
2021/08/23 03:22:01;;;;;;;4.20;3.33;;;16.20;99.90;;;;;;6275040;22;20721;-58
2021/08/23 03:24:27;;;;;;;4.20;3.20;;;16.20;99.90;;;;;;6248029;22;20185;-60
2021/08/23 03:26:53;;;;;;;4.60;3.73;;;16.30;99.90;;;;;;6274881;22;20205;-60
2021/08/23 03:29:19;;;;;;;7.47;3.90;;;16.30;99.90;;;;;;6274592;22;20608;-59
2021/08/23 03:31:44;;;;;;;6.30;3.80;;;16.20;99.90;;;;;;6274959;22;20146;-59
2021/08/23 03:34:13;;;;;;;3.93;3.50;;;16.30;99.90;;;;;;6274661;22;20157;-60
2021/08/23 03:36:44;;;;;;;5.03;3.30;;;16.30;99.90;;;;;;6274927;22;20166;-59
2021/08/23 03:39:10;;;;;;;4.10;3.37;;;16.40;99.90;;;;;;6274584;22;20208;-59
2021/08/23 03:41:37;;;;;;;4.07;3.67;;;16.80;99.90;;;;;;6274756;22;20143;-60
2021/08/23 03:44:03;;;;;;;5.27;3.30;;;16.30;99.90;;;;;;6274557;22;20165;-59
2021/08/23 03:46:32;;;;;;;5.67;3.70;;;16.40;99.90;;;;;;6274867;22;20216;-59
2021/08/23 03:48:58;;;;;;;4.20;3.80;;;16.40;99.90;;;;;;6274558;22;20203;-59
2021/08/23 03:51:24;;;;;;;4.97;3.67;;;16.30;99.90;;;;;;6275116;22;20177;-60
2021/08/23 03:53:50;;;;;;;4.30;3.90;;;16.40;99.90;;;;;;6247577;22;20596;-59
2021/08/23 03:56:15;;;;;;;5.43;4.13;;;16.40;99.90;;;;;;6274968;22;20174;-59
2021/08/23 03:58:41;;;;;;;4.70;3.67;;;16.30;99.90;;;;;;6274293;22;20178;-59
2021/08/23 04:01:06;;;;;;;6.17;4.00;;;16.20;99.90;;;;;;6274368;22;20153;-59
2021/08/23 04:03:32;;;;;;;5.73;4.70;;;16.20;99.90;;;;;;6274653;22;20154;-60
2021/08/23 04:05:57;;;;;;;5.43;4.30;;;16.20;99.90;;;;;;6274478;22;20249;-58
2021/08/23 04:08:23;;;;;;;4.63;4.07;;;16.10;99.90;;;;;;6274544;22;20182;-59
2021/08/23 04:10:48;;;;;;;3.90;3.60;;;15.90;99.90;;;;;;6274318;22;20147;-59
2021/08/23 04:13:14;;;;;;;4.63;3.93;;;15.70;99.90;;;;;;6274614;22;20484;-59
2021/08/23 04:15:46;;;;;;;4.90;4.00;;;15.60;99.90;;;;;;6274670;22;20186;-58
2021/08/23 04:18:12;;;;;;;5.50;4.30;;;15.50;99.90;;;;;;6274210;22;20188;-56
2021/08/23 04:20:38;;;;;;;5.53;4.17;;;15.60;99.90;;;;;;6273878;22;20529;-59
2021/08/23 04:23:03;;;;;;;4.57;3.80;;;15.70;99.90;;;;;;6274363;22;20150;-58
2021/08/23 04:25:29;;;;;;;6.33;4.30;;;15.60;99.90;;;;;;6274194;22;20161;-59
2021/08/23 04:27:54;;;;;;;4.17;3.77;;;15.50;99.90;;;;;;6274273;22;20147;-59
2021/08/23 04:30:20;;;;;;;5.33;4.37;;;15.50;99.90;;;;;;6273743;22;20147;-59
2021/08/23 04:32:45;;;;;;;5.50;4.00;;;15.40;99.90;;;;;;6274229;22;20172;-60
2021/08/23 04:35:11;;;;;;;5.60;3.73;;;15.30;99.90;;;;;;6274013;22;20173;-59
2021/08/23 04:37:36;;;;;;;6.43;4.50;;;15.30;99.90;;;;;;6274325;22;20158;-59
2021/08/23 04:40:02;;;;;;;5.03;4.40;;;15.40;99.90;;;;;;6273618;22;20173;-58
2021/08/23 04:42:28;;;;;;;6.90;3.80;;;15.40;99.90;;;;;;6274104;22;20601;-59
2021/08/23 04:44:53;;;;;;;4.00;3.70;;;15.40;99.90;;;;;;6273766;22;20469;-57
2021/08/23 04:47:19;;;;;;;4.33;3.93;;;15.50;99.90;;;;;;6273662;22;20142;-59
2021/08/23 04:49:45;;;;;;;4.60;3.87;;;15.60;99.90;;;;;;6273444;22;20146;-58
2021/08/23 04:52:10;;;;;;;4.07;3.67;;;15.60;99.90;;;;;;6273675;22;20156;-59
2021/08/23 04:54:36;;;;;;;5.60;3.83;;;15.60;99.90;;;;;;6273094;22;20150;-58
2021/08/23 04:57:01;;;;;;;4.63;3.67;;;15.60;99.90;;;;;;6274142;22;20173;-58
2021/08/23 04:59:27;;;;;;;4.70;3.87;;;15.60;99.90;;;;;;6273064;22;20767;-59
2021/08/23 05:01:52;;;;;;;3.93;3.50;;;15.60;99.90;;;;;;6273913;22;20481;-59
2021/08/23 05:04:18;;;;;;;5.67;3.57;;;15.70;99.90;;;;;;6273261;22;20142;-59
2021/08/23 05:06:44;;;;;;;6.03;3.47;;;15.70;99.90;;;;;;6273763;22;20166;-59
2021/08/23 05:09:09;;;;;;;4.90;3.60;;;15.60;99.90;;;;;;6273398;22;20485;-59
2021/08/23 05:11:36;;;;;;;5.07;3.90;;;15.60;99.90;;;;;;6273940;22;20146;-58
2021/08/23 05:14:02;;;;;;;4.43;4.00;;;15.60;99.90;;;;;;6273689;22;20157;-59
2021/08/23 05:16:27;;;;;;;5.70;3.90;;;15.70;99.90;;;;;;6273382;22;20181;-59
2021/08/23 05:18:53;;;;;;;4.23;3.70;;;15.60;99.90;;;;;;6273424;22;20189;-59
2021/08/23 05:21:18;;;;;;;6.80;4.00;;;15.60;99.90;;;;;;6273533;22;20146;-58
2021/08/23 05:23:44;;;;;;;4.30;3.40;;;15.50;99.90;;;;;;6273712;22;20221;-57
2021/08/23 05:26:10;;;;;;;3.93;3.53;;;15.60;99.90;;;;;;6273885;22;20224;-59
2021/08/23 05:28:36;;;;;;;4.17;3.77;;;15.70;99.90;;;;;;6273362;22;20146;-59
2021/08/23 05:31:02;;;;;;;4.10;3.40;;;15.70;99.90;;;;;;6273393;22;20627;-58
2021/08/23 05:33:27;;;;;;;5.17;3.50;;;15.80;99.90;;;;;;6273684;22;20149;-59
2021/08/23 05:35:53;;;;;;;5.90;3.90;;;15.80;99.90;;;;;;6273477;22;20165;-60
2021/08/23 05:38:18;;;;;;;6.73;3.80;;;15.90;99.90;;;;;;6273146;22;20176;-60
2021/08/23 05:40:44;;;;;;;4.70;3.60;;;16.00;99.90;;;;;;6272986;22;20146;-59
2021/08/23 05:43:09;;;;;;;3.67;3.33;;;15.80;99.90;;;;;;6273605;22;20174;-60
2021/08/23 05:45:35;;;;;;;4.63;3.77;;;15.90;99.90;;;;;;6273264;22;20166;-60
2021/08/23 05:48:00;;;;;;;3.87;3.57;;;16.00;99.90;;;;;;6273339;22;20138;-60
2021/08/23 05:50:26;;;;;;;4.20;3.67;;;16.00;99.90;;;;;;6272885;22;20216;-58
2021/08/23 05:52:52;;;;;;;3.80;3.47;;;16.10;99.90;;;;;;6270030;22;20170;-60
2021/08/23 05:55:17;;;;;;;6.03;3.60;;;16.10;99.90;;;;;;6270542;22;20170;-60
2021/08/23 05:57:43;;;;;;;4.83;3.73;;;16.20;99.90;;;;;;6272468;22;20150;-59
2021/08/23 06:00:10;;;;;;;6.07;4.50;;;16.20;99.90;;;;;;6272367;22;20237;-60
2021/08/23 06:02:35;;;;;;;5.10;3.80;;;16.20;99.90;;;;;;6273060;22;20154;-59
2021/08/23 06:05:01;;;;;;;5.20;3.80;;;16.30;99.90;;;;;;6273374;22;20532;-60
2021/08/23 06:07:26;;;;;;;4.83;3.73;;;16.50;99.90;;;;;;6273236;22;20541;-60
2021/08/23 06:09:52;;;;;;;5.43;4.20;;;16.50;99.90;;;;;;6274316;22;20154;-60
2021/08/23 06:12:18;;;;;;;4.20;3.90;;;16.60;99.90;;;;;;6275176;22;20146;-60
2021/08/23 06:14:43;;;;;;;4.57;4.17;;;16.60;99.90;;;;;;6275615;22;20171;-61
2021/08/23 06:17:09;;;;;;;4.27;3.87;;;16.60;99.90;;;;;;6275175;22;20192;-57
2021/08/23 06:19:35;;;;;;;4.23;3.83;;;16.70;99.90;;;;;;6274538;22;20180;-60
2021/08/23 06:22:01;;;;;;;4.80;4.40;;;16.70;99.90;;;;;;6275232;22;20144;-57
2021/08/23 06:24:26;;;;;;;4.70;4.30;;;16.70;99.90;;;;;;6274321;22;20151;-59
2021/08/23 06:26:52;;;;;;;5.07;3.97;;;16.70;99.90;;;;;;6274141;22;20804;-59
2021/08/23 06:29:17;;;;;;;5.03;4.17;;;16.60;99.90;;;;;;6274192;22;20243;-58
2021/08/23 06:31:43;;;;;;;4.33;3.93;;;16.70;99.90;;;;;;6272017;22;20481;-60
2021/08/23 06:34:08;;;;;;;4.87;4.00;;;16.80;99.90;;;;;;6272351;22;20179;-60
2021/08/23 06:36:35;;;;;;;6.10;4.07;;;16.80;99.90;;;;;;6274678;22;20170;-59
2021/08/23 06:39:01;;;;;;;4.50;4.07;;;16.90;99.90;;;;;;6274414;22;20680;-60
2021/08/23 06:41:28;;;;;;;4.83;4.00;;;17.00;99.90;;;;;;6274740;22;20155;-61
2021/08/23 06:43:54;;;;;;;5.70;4.20;;;16.90;99.90;;;;;;6274888;22;20143;-60
2021/08/23 06:46:20;;;;;;;4.90;4.00;;;16.80;99.90;;;;;;6274711;22;20169;-60
2021/08/23 06:48:45;;;;;;;7.17;4.13;;;16.80;99.90;;;;;;6274471;22;20153;-60
2021/08/23 06:51:12;;;;;;;4.10;3.63;;;16.80;99.90;;;;;;6274876;22;20150;-61
2021/08/23 06:53:38;;;;;;;5.20;3.47;;;16.70;99.90;;;;;;6275217;22;20159;-58
2021/08/23 06:56:03;;;;;;;5.03;4.00;;;16.70;99.90;;;;;;6272691;22;20178;-60
2021/08/23 06:58:29;;;;;;;5.37;3.80;;;16.70;99.90;;;;;;6273253;22;20202;-60
2021/08/23 07:00:54;;;;;;;3.83;3.50;;;16.80;99.90;;;;;;6274159;22;20194;-60
2021/08/23 07:03:20;;;;;;;4.73;3.70;;;16.90;99.90;;;;;;6275094;22;20176;-59
2021/08/23 07:05:45;;;;;;;5.17;3.83;;;17.10;99.90;;;;;;6274373;22;20165;-56
2021/08/23 07:08:13;;;;;;;5.53;3.73;;;17.20;99.90;;;;;;6273442;22;20150;-60
2021/08/23 07:10:39;;;;;;;4.47;3.50;;;17.20;99.90;;;;;;6274968;22;20169;-58
2021/08/23 07:13:04;;;;;;;6.20;3.90;;;17.20;99.90;;;;;;6275460;22;20465;-60
2021/08/23 07:15:30;;;;;;;4.13;3.57;;;17.30;99.90;;;;;;6275223;22;20189;-59
2021/08/23 07:17:55;;;;;;;5.93;3.13;;;17.20;99.90;;;;;;6274630;22;20196;-60
2021/08/23 07:20:21;;;;;;;4.67;3.40;;;17.30;99.90;;;;;;6274910;22;20559;-59
2021/08/23 07:22:47;;;;;;;5.77;3.70;;;17.40;99.90;;;;;;6275173;22;20477;-61
2021/08/23 07:25:12;;;;;;;4.13;3.17;;;17.40;99.90;;;;;;6275044;22;20169;-61
2021/08/23 07:27:38;;;;;;;4.30;3.03;;;17.50;99.90;;;;;;6275025;22;20154;-60
2021/08/23 07:30:04;;;;;;;3.50;3.20;;;17.50;99.90;;;;;;6275320;22;20237;-59
2021/08/23 07:32:30;;;;;;;4.33;3.20;;;17.60;99.90;;;;;;6274939;22;20146;-60
2021/08/23 07:34:55;;;;;;;3.77;3.33;;;17.60;99.90;;;;;;6275462;22;20227;-60
2021/08/23 07:37:21;;;;;;;3.67;3.37;;;17.80;99.90;;;;;;6275028;22;20154;-61
2021/08/23 07:39:47;;;;;;;3.87;3.40;;;17.90;99.90;;;;;;6270259;22;20174;-59
2021/08/23 07:42:13;;;;;;;6.70;3.50;;;17.90;99.90;;;;;;6272044;22;20543;-60
2021/08/23 07:44:39;;;;;;;4.50;2.80;;;18.10;99.90;;;;;;6273625;22;20615;-59
2021/08/23 07:47:06;;;;;;;4.67;3.57;;;18.20;99.90;;;;;;6274167;22;20493;-60
2021/08/23 07:49:32;;;;;;;4.43;3.50;;;18.70;99.90;;;;;;6273739;22;20161;-60
2021/08/23 07:51:58;;;;;;;4.63;3.40;;;17.90;99.90;;;;;;6273584;22;20154;-60
2021/08/23 07:54:23;;;;;;;4.30;3.30;;;18.00;99.90;;;;;;6274071;22;20190;-60
2021/08/23 07:56:49;;;;;;;4.57;3.30;;;18.10;99.90;;;;;;6274404;22;20170;-58
2021/08/23 07:59:14;;;;;;;4.07;3.63;;;18.20;99.90;;;;;;6272245;22;20204;-60
2021/08/23 08:01:40;;;;;;;5.53;3.23;;;18.20;99.90;;;;;;6271518;22;20517;-59
2021/08/23 08:04:06;;;;;;;3.43;3.13;;;18.40;99.90;;;;;;6273710;22;20159;-60
2021/08/23 08:06:31;;;;;;;8.40;3.83;;;18.20;99.90;;;;;;6272662;22;20172;-56
2021/08/23 08:08:57;;;;;;;3.50;3.20;;;18.10;99.90;;;;;;6271889;22;20154;-60
2021/08/23 08:11:22;;;;;;;5.30;3.43;;;18.10;99.90;;;;;;6273556;22;20589;-60
2021/08/23 08:13:48;;;;;;;4.63;3.10;;;18.40;99.90;;;;;;6274229;22;20640;-60
2021/08/23 08:16:14;;;;;;;3.57;3.10;;;18.30;99.90;;;;;;6270498;22;20631;-60
2021/08/23 08:18:39;;;;;;;3.80;3.10;;;18.40;99.90;;;;;;6273264;22;20181;-60
2021/08/23 08:21:05;;;;;;;4.27;3.40;;;18.40;99.90;;;;;;6273751;22;20541;-61
2021/08/23 08:23:31;;;;;;;6.67;3.30;;;18.20;99.90;;;;;;6273746;22;20507;-61
2021/08/23 08:25:57;;;;;;;3.20;2.87;;;18.30;99.90;;;;;;6273714;22;20215;-61
2021/08/23 08:28:22;;;;;;;3.53;2.90;;;18.70;99.90;;;;;;6272117;22;20756;-61
2021/08/23 08:30:48;;;;;;;3.77;3.00;;;19.10;99.90;;;;;;6273549;22;20485;-60
2021/08/23 08:33:15;;;;;;;2.90;2.60;;;19.00;99.90;;;;;;6273640;22;20480;-61
2021/08/23 08:35:41;;;;;;;4.03;2.77;;;19.00;99.90;;;;;;6274310;22;20249;-61
2021/08/23 08:38:07;;;;;;;3.33;3.00;;;19.00;99.90;;;;;;6271811;22;20150;-60
2021/08/23 08:40:32;;;;;;;5.03;2.87;;;18.80;99.90;;;;;;6273010;22;20208;-61
2021/08/23 08:42:58;;;;;;;3.90;2.83;;;18.60;99.90;;;;;;6273917;22;20156;-61
2021/08/23 08:45:27;;;;;;;2.90;2.60;;;18.70;99.90;;;;;;6273660;22;20173;-61
2021/08/23 08:47:55;;;;;;;2.50;2.30;;;18.80;99.90;;;;;;6273601;22;20604;-59
2021/08/23 08:50:22;;;;;;;3.40;2.40;;;18.90;99.90;;;;;;6273486;22;20625;-58
2021/08/23 08:52:47;;;;;;;3.10;2.37;;;18.90;99.90;;;;;;6272616;22;20150;-60
2021/08/23 08:55:14;;;;;;;5.33;2.60;;;19.10;99.90;;;;;;6273487;22;20220;-60
2021/08/23 08:57:40;;;;;;;2.90;2.50;;;19.20;99.90;;;;;;6274065;22;20165;-60
2021/08/23 09:00:07;;;;;;;2.37;2.17;;;19.20;99.90;;;;;;6273282;22;20177;-61
2021/08/23 09:02:33;;;;;;;2.60;2.40;;;19.10;99.90;;;;;;6273562;22;20150;-60
2021/08/23 09:05:02;;;;;;;3.63;2.73;;;19.20;99.90;;;;;;6272851;22;20601;-60
2021/08/23 09:07:36;;;;;;;2.97;2.47;;;19.10;99.90;;;;;;6272588;22;20247;-60
2021/08/23 09:10:34;;;;;;;2.97;2.50;;;19.10;99.90;;;;;;6272758;22;20173;-60
2021/08/23 09:13:01;;;;;;;2.47;2.27;;;19.00;99.90;;;;;;6273539;22;20150;-59
2021/08/23 09:15:26;;;;;;;2.80;2.50;;;18.90;99.90;;;;;;6273416;22;20212;-60
2021/08/23 09:18:07;;;;;;;4.20;2.30;;;18.90;99.90;;;;;;6273657;22;20130;-59
2021/08/23 09:20:34;;;;;;;2.17;2.07;;;18.60;99.90;;;;;;6273875;22;20154;-58
2021/08/23 09:23:12;;;;;;;2.50;2.30;;;18.80;99.90;;;;;;6272764;22;20154;-57
2021/08/23 09:25:38;;;;;;;3.40;2.40;;;19.10;99.90;;;;;;6273601;22;20177;-60
2021/08/23 09:28:05;;;;;;;2.97;2.67;;;19.30;99.90;;;;;;6273428;22;20153;-60
2021/08/23 09:30:31;;;;;;;3.67;2.30;;;19.30;99.90;;;;;;6268806;22;20244;-59
2021/08/23 09:33:01;;;;;;;2.20;2.03;;;19.70;99.90;;;;;;6273353;22;20154;-59
2021/08/23 09:35:35;;;;;;;2.72;2.05;;;20.10;99.90;;;;;;6273202;22;20167;-60
2021/08/23 09:38:09;;;;;;;2.40;2.00;;;20.00;99.90;;;;;;6273852;22;20161;-60
2021/08/23 09:40:35;;;;;;;3.17;2.10;;;19.80;99.90;;;;;;6272962;22;20165;-59
2021/08/23 09:43:13;;;;;;;2.20;2.00;;;19.60;99.90;;;;;;6273733;22;20158;-60
2021/08/23 09:45:44;;;;;;;3.37;2.20;;;19.40;99.90;;;;;;6273640;22;20215;-60
2021/08/23 09:48:10;;;;;;;3.53;2.40;;;19.20;99.90;;;;;;6273836;22;20130;-60
2021/08/23 09:50:44;;;;;;;6.00;2.47;;;18.80;99.90;;;;;;6273113;22;20157;-58
2021/08/23 09:53:12;;;;;;;2.80;2.17;;;18.80;99.90;;;;;;6273155;22;20219;-60
2021/08/23 09:55:41;;;;;;;2.20;2.00;;;18.80;99.90;;;;;;6273385;22;20166;-60
2021/08/23 09:58:09;;;;;;;3.13;2.27;;;19.00;99.90;;;;;;6273154;22;20161;-60
2021/08/23 10:00:36;;;;;;;2.63;2.43;;;19.00;99.90;;;;;;6273293;22;20157;-60
2021/08/23 10:03:05;;;;;;;2.63;2.03;;;19.30;99.90;;;;;;6273261;22;20150;-58
2021/08/23 10:05:31;;;;;;;3.80;2.60;;;19.50;99.90;;;;;;6273631;22;20170;-60
2021/08/23 10:07:57;;;;;;;2.57;2.37;;;19.80;99.90;;;;;;6273130;22;20149;-57
2021/08/23 10:10:23;;;;;;;2.80;2.27;;;20.10;99.90;;;;;;6245467;22;20154;-60
2021/08/23 10:12:49;;;;;;;2.87;2.50;;;19.90;99.90;;;;;;6273055;22;20225;-60
2021/08/23 10:15:15;;;;;;;2.27;2.00;;;19.70;99.90;;;;;;6272973;22;20193;-60
2021/08/23 10:17:41;;;;;;;2.23;2.03;;;19.40;99.90;;;;;;6246188;22;20569;-60
2021/08/23 10:20:11;;;;;;;2.53;2.33;;;19.30;99.90;;;;;;6273900;22;20176;-60
2021/08/23 10:22:39;;;;;;;3.30;2.30;;;19.10;99.90;;;;;;6273382;22;20135;-59
2021/08/23 10:25:06;;;;;;;4.53;2.70;;;19.00;99.90;;;;;;6272790;22;20596;-57
2021/08/23 10:27:33;;;;;;;3.27;2.13;;;19.10;99.90;;;;;;6273169;22;20170;-59
2021/08/23 10:29:59;;;;;;;2.80;2.60;;;19.20;99.90;;;;;;6272672;22;20173;-61
2021/08/23 10:32:40;;;;;;;2.20;2.07;;;19.30;99.90;;;;;;6273003;22;20150;-57
2021/08/23 10:35:43;;;;;;;2.50;2.30;;;19.40;99.90;;;;;;6245885;22;20161;-60
2021/08/23 10:38:18;;;;;;;3.03;2.17;;;19.80;99.90;;;;;;6148920;23;20152;-55
2021/08/23 10:40:44;;;;;;;2.27;2.10;;;20.00;99.90;;;;;;6148981;23;20268;-58
2021/08/23 10:43:16;;;;;;;2.90;2.20;;;20.40;99.90;;;;;;6143318;23;20195;-55
2021/08/23 10:45:41;;;;;;;3.92;2.38;;;20.70;99.90;;;;;;6149494;23;20168;-59
2021/08/23 10:48:15;;;;;;;2.38;2.17;;;21.10;99.90;;;;;;6149199;23;20174;-59
2021/08/23 10:50:40;;;;;;;2.42;2.20;;;21.50;99.90;;;;;;6149150;23;20259;-60
2021/08/23 10:53:14;;;;;;;3.92;2.75;;;21.60;99.90;;;;;;6150441;23;20152;-60
2021/08/23 10:55:40;;;;;;;3.65;2.83;;;22.00;99.90;;;;;;6151059;23;20307;-60
2021/08/23 10:58:08;;;;;;;2.67;2.47;;;22.10;99.90;;;;;;6151458;23;20627;-59
2021/08/23 11:00:43;;;;;;;2.90;2.67;;;22.20;99.90;;;;;;6150719;23;20144;-59
2021/08/23 11:03:09;;;;;;;3.72;3.08;;;22.50;99.90;;;;;;6151567;23;20433;-60
2021/08/23 11:05:36;;;;;;;2.92;2.60;;;22.00;99.90;;;;;;6149115;23;20201;-58
2021/08/23 11:08:08;;;;;;;3.30;2.85;;;21.20;99.90;;;;;;6149739;23;20176;-57
2021/08/23 11:10:36;;;;;;;3.10;2.80;;;20.50;99.90;;;;;;6148975;23;20193;-56
2021/08/23 11:13:18;;;;;;;3.53;3.03;;;19.80;99.90;;;;;;6150888;23;20162;-59
2021/08/23 11:15:45;;;;;;;3.20;3.00;;;19.70;99.90;;;;;;6274665;22;20213;-59
2021/08/23 11:18:16;;;;;;;2.92;2.72;;;20.00;99.90;;;;;;6273757;22;20152;-60
2021/08/23 11:20:51;;;;;;;3.08;2.88;;;20.60;99.90;;;;;;6274343;22;20153;-60
2021/08/23 11:23:22;;;;;;;3.42;3.20;;;20.90;99.90;;;;;;6274925;22;20587;-58
2021/08/23 11:25:51;;;;;;;3.40;3.10;;;20.90;99.90;;;;;;6274699;22;20249;-58
2021/08/23 11:28:19;;;;;;;4.32;3.40;;;20.40;99.90;;;;;;6274472;22;20152;-56
2021/08/23 11:30:54;;;;;;;3.67;3.38;;;20.40;99.90;;;;;;6274499;22;20201;-58
2021/08/23 11:33:34;;;;;;;4.00;3.70;;;20.30;99.90;;;;;;6263844;22;20131;-60
2021/08/23 11:36:01;;;;;;;4.13;3.80;;;20.30;99.90;;;;;;6274650;22;20164;-59
2021/08/23 11:38:38;;;;;;;3.95;3.65;;;20.60;99.90;;;;;;6273954;22;20169;-60
2021/08/23 11:41:05;;;;;;;4.28;3.42;;;21.10;99.90;;;;;;6274571;22;20224;-60
2021/08/23 11:43:32;;;;;;;3.22;3.03;;;21.40;99.90;;;;;;6272822;22;20154;-58
2021/08/23 11:45:59;;;;;;;3.15;2.95;;;21.80;99.90;;;;;;6273978;22;20169;-60
2021/08/23 11:48:25;;;;;;;3.60;3.30;;;22.10;99.90;;;;;;6273809;22;20192;-52
2021/08/23 11:50:51;;;;;;;3.67;2.85;;;22.50;99.90;;;;;;6274550;22;20146;-60
2021/08/23 11:53:17;;;;;;;3.03;2.83;;;23.00;99.90;;;;;;6273598;22;20219;-59
2021/08/23 11:55:46;;;;;;;3.00;2.67;;;23.10;99.90;;;;;;6274543;22;20170;-59
2021/08/23 11:58:25;;;;;;;2.55;2.35;;;23.20;99.90;;;;;;6272617;22;20199;-58
2021/08/23 12:01:03;;;;;;;2.35;2.25;;;23.10;99.90;;;;;;6271723;22;20195;-57
2021/08/23 12:03:30;;;;;;;2.53;2.33;;;23.30;99.90;;;;;;6271325;22;20145;-58
2021/08/23 12:06:04;;;;;;;3.35;3.05;;;23.70;99.90;;;;;;6271187;22;20158;-56
2021/08/23 12:08:35;;;;;;;2.50;2.30;;;24.00;99.90;;;;;;6272457;22;20145;-60
2021/08/23 12:11:02;;;;;;;2.28;2.13;;;24.10;99.90;;;;;;6274172;22;20131;-60
2021/08/23 12:13:41;;;;;;;2.88;2.67;;;24.50;99.90;;;;;;6273630;22;20153;-60
2021/08/23 12:16:08;;;;;;;2.50;2.30;;;24.70;99.90;;;;;;6272909;22;20204;-60
2021/08/23 12:18:35;;;;;;;2.47;2.33;;;24.30;99.90;;;;;;6273656;22;20178;-61
2021/08/23 12:21:06;;;;;;;2.80;2.22;;;24.00;99.90;;;;;;6273644;22;20146;-61
2021/08/23 12:23:47;;;;;;;2.92;2.00;;;23.90;99.90;;;;;;6274242;22;20465;-58
2021/08/23 12:26:14;;;;;;;2.42;2.22;;;23.30;99.90;;;;;;6274410;22;20584;-62
2021/08/23 12:28:47;;;;;;;2.58;2.38;;;22.80;99.90;;;;;;6273820;22;20196;-60
2021/08/23 12:31:14;;;;;;;2.83;2.63;;;22.30;99.90;;;;;;6274208;22;20146;-60
2021/08/23 12:33:40;;;;;;;16.42;8.15;;;22.00;99.90;;;;;;6274050;22;20154;-59
2021/08/23 12:36:05;;;;;;;6.15;2.70;;;21.60;99.90;;;;;;6274071;22;20266;-60
2021/08/23 12:38:30;;;;;;;3.10;2.55;;;21.40;99.90;;;;;;6273058;22;20180;-59
2021/08/23 12:40:56;;;;;;;2.67;2.58;;;21.10;99.90;;;;;;6274058;22;20454;-59
2021/08/23 12:43:22;;;;;;;2.60;2.40;;;20.90;99.90;;;;;;6274052;22;20589;-60
2021/08/23 12:45:47;;;;;;;3.42;2.30;;;20.70;99.90;;;;;;6274106;22;20629;-60
2021/08/23 12:48:13;;;;;;;2.40;2.20;;;20.40;99.90;;;;;;6274087;22;20154;-60